createdAt,value
2018-07-04T00:02:28.296Z,16.10
2018-07-04T00:05:12.975Z,15.97
2018-07-04T00:07:57.702Z,15.92
2018-07-04T00:10:42.456Z,15.83
2018-07-04T00:13:27.192Z,15.77
2018-07-04T00:16:11.947Z,15.73
2018-07-04T00:18:56.623Z,15.70
2018-07-04T00:21:41.387Z,15.68
2018-07-04T00:24:26.215Z,15.64
2018-07-04T00:27:11.026Z,15.59
2018-07-04T00:29:55.675Z,15.53
2018-07-04T00:32:40.592Z,15.48
2018-07-04T00:35:25.255Z,15.42
2018-07-04T00:38:09.927Z,15.37
2018-07-04T00:40:54.679Z,15.30
2018-07-04T00:43:39.456Z,15.21
2018-07-04T00:46:24.306Z,15.17
2018-07-04T00:49:08.951Z,15.11
2018-07-04T00:51:53.815Z,15.04
2018-07-04T00:54:38.587Z,15.02
2018-07-04T00:57:23.256Z,14.89
2018-07-04T01:00:07.964Z,14.82
2018-07-04T01:02:52.651Z,14.75
2018-07-04T01:05:37.512Z,14.74
2018-07-04T01:08:22.159Z,14.69
2018-07-04T01:11:06.877Z,14.62
2018-07-04T01:13:51.593Z,14.61
2018-07-04T01:16:36.194Z,14.52
2018-07-04T01:19:21.101Z,14.45
2018-07-04T01:22:05.709Z,14.41
2018-07-04T01:24:50.556Z,14.37
2018-07-04T01:27:35.406Z,14.31
2018-07-04T01:30:20.124Z,14.28
2018-07-04T01:33:04.784Z,14.28
2018-07-04T01:35:49.698Z,14.24
2018-07-04T01:38:34.476Z,14.20
2018-07-04T01:41:19.237Z,14.17
2018-07-04T01:44:04.253Z,14.13
2018-07-04T01:46:48.993Z,14.03
2018-07-04T01:49:33.861Z,14.01
2018-07-04T01:52:18.766Z,13.98
2018-07-04T01:55:03.411Z,13.94
2018-07-04T01:57:48.079Z,13.93
2018-07-04T02:00:32.795Z,13.91
2018-07-04T02:03:17.500Z,13.87
2018-07-04T02:06:02.177Z,13.83
2018-07-04T02:08:46.862Z,13.75
2018-07-04T02:11:31.624Z,13.68
2018-07-04T02:14:16.415Z,13.66
2018-07-04T02:17:01.296Z,13.65
2018-07-04T02:19:45.909Z,13.61
2018-07-04T02:22:30.611Z,13.52
2018-07-04T02:25:15.445Z,13.49
2018-07-04T02:28:00.964Z,13.43
2018-07-04T02:30:45.692Z,13.34
2018-07-04T02:33:31.430Z,13.30
2018-07-04T02:36:15.961Z,13.27
2018-07-04T02:39:00.545Z,13.26
2018-07-04T02:41:45.296Z,13.25
2018-07-04T02:44:29.968Z,13.28
2018-07-04T02:47:31.355Z,13.29
2018-07-04T02:50:16.088Z,13.24
2018-07-04T02:53:00.747Z,13.20
2018-07-04T02:55:45.388Z,13.11
2018-07-04T02:58:30.131Z,13.06
2018-07-04T03:01:14.926Z,13.01
2018-07-04T03:03:59.639Z,13.01
2018-07-04T03:06:44.258Z,13.02
2018-07-04T03:09:28.825Z,13.01
2018-07-04T03:12:13.538Z,12.99
2018-07-04T03:14:58.149Z,12.96
2018-07-04T03:17:42.897Z,12.95
2018-07-04T03:20:27.485Z,12.94
2018-07-04T03:23:12.220Z,12.94
2018-07-04T03:25:56.974Z,12.96
2018-07-04T03:28:41.623Z,12.96
2018-07-04T03:31:26.352Z,12.95
2018-07-04T03:34:11.081Z,12.95
2018-07-04T03:36:55.675Z,12.92
2018-07-04T03:39:40.476Z,12.85
2018-07-04T03:42:25.146Z,12.82
2018-07-04T03:45:09.803Z,12.84
2018-07-04T03:47:54.566Z,12.83
2018-07-04T03:50:39.293Z,12.83
2018-07-04T03:53:23.936Z,12.83
2018-07-04T03:56:08.597Z,12.86
2018-07-04T03:58:53.161Z,12.90
2018-07-04T04:01:37.847Z,12.95
2018-07-04T04:04:22.393Z,13.02
2018-07-04T04:07:07.040Z,13.10
2018-07-04T04:09:51.832Z,13.14
2018-07-04T04:12:36.500Z,13.26
2018-07-04T04:15:22.123Z,13.36
2018-07-04T04:18:06.793Z,13.50
2018-07-04T04:20:51.449Z,13.68
2018-07-04T04:23:36.101Z,13.88
2018-07-04T04:26:20.809Z,14.04
2018-07-04T04:29:05.490Z,14.23
2018-07-04T04:31:50.149Z,14.40
2018-07-04T04:34:34.717Z,14.58
2018-07-04T04:37:19.392Z,14.74
2018-07-04T04:40:04.006Z,14.91
2018-07-04T04:42:48.526Z,15.05
2018-07-04T04:45:33.263Z,15.18
2018-07-04T04:48:17.955Z,15.33
2018-07-04T04:51:02.725Z,15.51
2018-07-04T04:53:47.440Z,15.69
2018-07-04T04:56:32.020Z,15.86
2018-07-04T04:59:16.725Z,16.03
2018-07-04T05:02:01.268Z,16.18
2018-07-04T05:04:45.921Z,16.33
2018-07-04T05:07:30.591Z,16.50
2018-07-04T05:10:15.200Z,16.67
2018-07-04T05:12:59.969Z,16.84
2018-07-04T05:15:44.633Z,17.03
2018-07-04T05:18:29.189Z,17.24
2018-07-04T05:21:13.879Z,17.49
2018-07-04T05:23:58.684Z,17.63
2018-07-04T05:26:43.238Z,17.76
2018-07-04T05:29:27.873Z,17.97
2018-07-04T05:32:12.426Z,18.26
2018-07-04T05:34:57.126Z,18.54
2018-07-04T05:37:41.960Z,18.78
2018-07-04T05:40:26.667Z,18.97
2018-07-04T05:43:11.230Z,19.14
2018-07-04T05:45:55.894Z,19.23
2018-07-04T05:48:40.587Z,19.38
2018-07-04T05:51:25.360Z,19.46
2018-07-04T05:54:09.972Z,19.58
2018-07-04T05:56:54.645Z,19.59
2018-07-04T05:59:39.320Z,19.58
2018-07-04T06:02:23.997Z,19.63
2018-07-04T06:05:08.600Z,19.79
2018-07-04T06:07:53.382Z,19.97
2018-07-04T06:10:38.041Z,20.16
2018-07-04T06:13:22.836Z,20.33
2018-07-04T06:16:07.438Z,20.51
2018-07-04T06:18:52.108Z,20.52
2018-07-04T06:21:36.807Z,20.52
2018-07-04T06:24:21.345Z,20.64
2018-07-04T06:27:05.910Z,20.81
2018-07-04T06:29:50.417Z,20.77
2018-07-04T06:32:35.070Z,20.76
2018-07-04T06:35:19.687Z,21.30
2018-07-04T06:37:51.944Z,21.57
2018-07-04T06:40:24.218Z,21.73
2018-07-04T06:42:56.576Z,21.89
2018-07-04T06:45:28.872Z,21.75
2018-07-04T06:48:01.126Z,21.71
2018-07-04T06:50:33.462Z,21.78
2018-07-04T06:53:05.716Z,21.93
2018-07-04T06:55:37.991Z,22.11
2018-07-04T06:58:10.228Z,22.13
2018-07-04T07:00:42.512Z,22.25
2018-07-04T07:03:27.098Z,22.41
2018-07-04T07:06:11.756Z,22.39
2018-07-04T07:08:56.356Z,22.43
2018-07-04T07:11:41.098Z,22.33
2018-07-04T07:14:25.779Z,22.39
2018-07-04T07:17:10.217Z,22.32
2018-07-04T07:19:54.910Z,22.58
2018-07-04T07:22:39.559Z,22.59
2018-07-04T07:25:24.060Z,22.83
2018-07-04T07:28:08.837Z,22.58
2018-07-04T07:30:53.398Z,22.75
2018-07-04T07:33:37.972Z,23.06
2018-07-04T07:36:22.728Z,23.31
2018-07-04T07:39:07.463Z,23.38
2018-07-04T07:41:52.178Z,23.57
2018-07-04T07:44:36.722Z,23.78
2018-07-04T07:47:21.190Z,24.00
2018-07-04T07:50:05.935Z,23.99
2018-07-04T07:52:50.589Z,24.14
2018-07-04T07:55:35.144Z,24.17
2018-07-04T07:58:19.887Z,23.99
2018-07-04T08:01:04.443Z,24.08
2018-07-04T08:03:49.119Z,24.18
2018-07-04T08:06:33.700Z,24.11
2018-07-04T08:09:18.281Z,24.21
2018-07-04T08:12:03.463Z,24.22
2018-07-04T08:14:48.156Z,24.34
2018-07-04T08:17:32.869Z,24.50
2018-07-04T08:20:17.535Z,24.54
2018-07-04T08:23:02.330Z,24.82
2018-07-04T08:25:46.969Z,25.10
2018-07-04T08:28:31.602Z,25.28
2018-07-04T08:31:16.301Z,25.28
2018-07-04T08:34:00.968Z,25.21
2018-07-04T08:36:45.635Z,25.46
2018-07-04T08:39:30.314Z,25.47
2018-07-04T08:42:15.058Z,25.67
2018-07-04T08:44:59.687Z,25.80
2018-07-04T08:47:44.352Z,26.00
2018-07-04T08:50:29.040Z,25.74
2018-07-04T08:53:13.718Z,26.00
2018-07-04T08:55:58.329Z,26.23
2018-07-04T08:58:43.068Z,26.61
2018-07-04T09:01:28.369Z,26.40
2018-07-04T09:04:13.012Z,26.43
2018-07-04T09:06:57.694Z,26.74
2018-07-04T09:09:42.404Z,26.86
2018-07-04T09:12:27.067Z,27.01
2018-07-04T09:15:11.626Z,26.78
2018-07-04T09:17:56.314Z,26.95
2018-07-04T09:20:41.052Z,26.88
2018-07-04T09:23:25.755Z,26.93
2018-07-04T09:26:10.799Z,26.91
2018-07-04T09:28:55.248Z,26.92
2018-07-04T09:31:39.827Z,26.88
2018-07-04T09:34:24.364Z,27.03
2018-07-04T09:37:09.122Z,27.16
2018-07-04T09:39:53.646Z,27.07
2018-07-04T09:42:38.392Z,27.40
2018-07-04T09:45:23.399Z,27.50
2018-07-04T09:48:07.858Z,27.40
2018-07-04T09:50:52.805Z,27.71
2018-07-04T09:53:37.616Z,27.59
2018-07-04T09:56:22.130Z,27.78
2018-07-04T09:59:06.860Z,28.00
2018-07-04T10:01:51.415Z,28.28
2018-07-04T10:04:35.935Z,28.29
2018-07-04T10:07:20.576Z,28.39
2018-07-04T10:10:05.225Z,29.25
2018-07-04T10:12:49.849Z,29.72
2018-07-04T10:15:34.504Z,29.68
2018-07-04T10:18:19.156Z,29.43
2018-07-04T10:21:03.751Z,29.64
2018-07-04T10:23:48.415Z,29.75
2018-07-04T10:26:33.054Z,29.89
2018-07-04T10:29:17.673Z,30.05
2018-07-04T10:32:02.377Z,30.06
2018-07-04T10:34:47.148Z,30.26
2018-07-04T10:37:31.998Z,30.28
2018-07-04T10:40:16.534Z,30.14
2018-07-04T10:43:01.163Z,30.19
2018-07-04T10:45:45.580Z,30.25
2018-07-04T10:48:30.239Z,30.22
2018-07-04T10:51:15.012Z,30.17
2018-07-04T10:53:59.768Z,30.27
2018-07-04T10:56:44.510Z,30.56
2018-07-04T10:59:29.162Z,30.74
2018-07-04T11:02:13.760Z,30.91
2018-07-04T11:04:58.644Z,30.62
2018-07-04T11:07:43.444Z,30.61
2018-07-04T11:10:28.111Z,30.55
2018-07-04T11:13:12.668Z,30.53
2018-07-04T11:15:57.400Z,30.49
2018-07-04T11:18:42.095Z,30.64
2018-07-04T11:21:27.040Z,30.69
2018-07-04T11:24:11.648Z,30.90
2018-07-04T11:26:56.312Z,30.86
2018-07-04T11:29:41.078Z,31.04
2018-07-04T11:32:25.785Z,31.40
2018-07-04T11:35:10.528Z,31.50
2018-07-04T11:37:55.147Z,31.45
2018-07-04T11:40:39.761Z,31.23
2018-07-04T11:43:24.444Z,31.17
2018-07-04T11:45:58.852Z,31.14
2018-07-04T11:48:31.116Z,31.41
2018-07-04T11:51:03.369Z,31.89
2018-07-04T11:53:35.667Z,31.98
2018-07-04T11:56:07.933Z,31.59
2018-07-04T11:58:40.184Z,31.67
2018-07-04T12:01:12.439Z,31.60
2018-07-04T12:03:57.023Z,31.35
2018-07-04T12:06:41.689Z,31.25
2018-07-04T12:09:13.986Z,31.01
2018-07-04T12:11:46.388Z,30.98
2018-07-04T12:14:18.675Z,31.07
2018-07-04T12:16:50.921Z,31.13
2018-07-04T12:19:23.385Z,31.19
2018-07-04T12:21:55.635Z,31.21
2018-07-04T12:24:27.915Z,31.27
2018-07-04T12:27:00.232Z,31.21
2018-07-04T12:29:32.482Z,31.43
2018-07-04T12:32:04.764Z,31.56
2018-07-04T12:34:37.017Z,31.40
2018-07-04T12:37:09.251Z,31.32
2018-07-04T12:39:41.529Z,31.23
2018-07-04T12:42:13.799Z,31.32
2018-07-04T12:44:46.083Z,31.24
2018-07-04T12:47:18.384Z,31.35
2018-07-04T12:49:50.620Z,31.31
2018-07-04T12:52:22.867Z,31.29
2018-07-04T12:55:11.297Z,31.26
2018-07-04T12:57:55.749Z,31.33
2018-07-04T13:00:40.496Z,31.44
2018-07-04T13:03:24.929Z,31.45
2018-07-04T13:06:09.536Z,31.40
2018-07-04T13:08:54.068Z,31.41
2018-07-04T13:11:38.767Z,31.48
2018-07-04T13:14:23.358Z,31.59
2018-07-04T13:17:08.256Z,31.81
2018-07-04T13:19:52.879Z,31.84
2018-07-04T13:22:37.555Z,31.76
2018-07-04T13:25:22.219Z,31.79
2018-07-04T13:28:06.980Z,32.09
2018-07-04T13:30:51.393Z,31.90
2018-07-04T13:33:36.104Z,32.08
2018-07-04T13:36:20.603Z,32.15
2018-07-04T13:39:05.703Z,32.12
2018-07-04T13:41:50.358Z,32.16
2018-07-04T13:44:35.009Z,32.25
2018-07-04T13:47:19.667Z,32.90
2018-07-04T13:50:04.652Z,33.00
2018-07-04T13:52:49.542Z,32.79
2018-07-04T13:55:34.128Z,32.73
2018-07-04T13:58:18.872Z,32.54
2018-07-04T14:01:03.569Z,32.52
2018-07-04T14:03:48.449Z,32.42
2018-07-04T14:06:33.036Z,32.17
2018-07-04T14:09:18.222Z,31.91
2018-07-04T14:12:02.839Z,31.95
2018-07-04T14:14:47.539Z,31.88
2018-07-04T14:17:32.311Z,31.82
2018-07-04T14:20:17.035Z,31.80
2018-07-04T14:23:01.627Z,31.68
2018-07-04T14:25:46.343Z,31.65
2018-07-04T14:28:31.191Z,31.74
2018-07-04T14:31:15.842Z,31.69
2018-07-04T14:34:00.451Z,31.75
2018-07-04T14:36:45.103Z,31.53
2018-07-04T14:39:29.815Z,31.58
2018-07-04T14:42:14.683Z,31.69
2018-07-04T14:44:59.402Z,31.79
2018-07-04T14:47:44.319Z,31.87
2018-07-04T14:50:29.457Z,31.69
2018-07-04T14:53:14.731Z,31.64
2018-07-04T14:56:00.669Z,31.60
2018-07-04T14:58:45.874Z,31.69
2018-07-04T15:01:31.027Z,31.74
2018-07-04T15:04:16.230Z,31.60
2018-07-04T15:07:01.377Z,31.70
2018-07-04T15:09:45.927Z,31.65
2018-07-04T15:12:31.180Z,31.67
2018-07-04T15:15:16.074Z,31.64
2018-07-04T15:18:01.275Z,31.64
2018-07-04T15:20:46.003Z,31.50
2018-07-04T15:23:30.821Z,31.52
2018-07-04T15:26:15.852Z,31.51
2018-07-04T15:29:00.481Z,31.21
2018-07-04T15:31:45.474Z,31.26
2018-07-04T15:34:30.794Z,31.36
2018-07-04T15:37:15.234Z,31.50
2018-07-04T15:40:00.164Z,31.53
2018-07-04T15:42:45.449Z,31.58
2018-07-04T15:45:30.401Z,31.51
2018-07-04T15:48:15.107Z,31.43
2018-07-04T15:50:59.742Z,31.37
2018-07-04T15:53:44.544Z,31.46
2018-07-04T15:56:29.078Z,31.44
2018-07-04T15:59:13.813Z,31.36
2018-07-04T16:01:58.396Z,31.47
2018-07-04T16:04:43.098Z,31.57
2018-07-04T16:07:27.832Z,31.48
2018-07-04T16:10:12.917Z,31.50
2018-07-04T16:12:57.569Z,31.59
2018-07-04T16:15:42.367Z,31.61
2018-07-04T16:18:27.113Z,31.67
2018-07-04T16:21:11.726Z,31.60
2018-07-04T16:23:56.520Z,31.53
2018-07-04T16:26:41.395Z,31.36
2018-07-04T16:29:26.114Z,31.44
2018-07-04T16:32:10.866Z,31.36
2018-07-04T16:34:55.535Z,31.41
2018-07-04T16:37:40.190Z,31.46
2018-07-04T16:40:24.930Z,31.54
2018-07-04T16:43:09.738Z,31.32
2018-07-04T16:45:54.890Z,31.26
2018-07-04T16:48:39.360Z,31.32
2018-07-04T16:51:24.168Z,31.40
2018-07-04T16:54:08.804Z,31.35
2018-07-04T16:56:53.562Z,31.33
2018-07-04T16:59:38.278Z,31.38
2018-07-04T17:02:22.882Z,31.40
2018-07-04T17:05:07.603Z,31.67
2018-07-04T17:07:52.282Z,31.72
2018-07-04T17:10:37.148Z,31.60
2018-07-04T17:13:22.033Z,31.36
2018-07-04T17:16:06.958Z,31.32
2018-07-04T17:18:51.560Z,31.40
2018-07-04T17:21:36.386Z,31.41
2018-07-04T17:24:21.138Z,31.39
2018-07-04T17:27:05.941Z,31.21
2018-07-04T17:29:50.665Z,31.12
2018-07-04T17:32:35.236Z,31.03
2018-07-04T17:35:19.895Z,31.03
2018-07-04T17:38:04.802Z,30.96
2018-07-04T17:40:49.490Z,30.87
2018-07-04T17:43:34.312Z,30.83
2018-07-04T17:46:19.236Z,30.78
2018-07-04T17:49:03.888Z,30.60
2018-07-04T17:51:48.609Z,30.52
2018-07-04T17:54:33.376Z,30.46
2018-07-04T17:57:18.067Z,30.41
2018-07-04T18:00:02.798Z,30.37
2018-07-04T18:02:47.599Z,30.30
2018-07-04T18:05:32.393Z,30.22
2018-07-04T18:08:17.033Z,30.16
2018-07-04T18:11:01.800Z,30.08
2018-07-04T18:13:46.512Z,29.96
2018-07-04T18:16:31.286Z,29.89
2018-07-04T18:19:16.037Z,29.85
2018-07-04T18:22:00.859Z,29.80
2018-07-04T18:24:45.532Z,29.73
2018-07-04T18:27:30.117Z,29.60
2018-07-04T18:30:14.910Z,29.51
2018-07-04T18:32:59.656Z,29.47
2018-07-04T18:35:44.345Z,29.41
2018-07-04T18:38:28.956Z,29.33
2018-07-04T18:41:13.503Z,29.24
2018-07-04T18:43:58.284Z,29.11
2018-07-04T18:46:42.941Z,29.00
2018-07-04T18:49:27.601Z,28.90
2018-07-04T18:52:12.283Z,28.77
2018-07-04T18:54:57.056Z,28.65
2018-07-04T18:57:41.525Z,28.53
2018-07-04T19:00:26.107Z,28.40
2018-07-04T19:03:10.695Z,28.29
2018-07-04T19:05:55.292Z,28.19
2018-07-04T19:08:39.854Z,28.07
2018-07-04T19:11:24.648Z,27.95
2018-07-04T19:14:09.438Z,27.83
2018-07-04T19:16:54.213Z,27.71
2018-07-04T19:19:38.902Z,27.60
2018-07-04T19:22:23.502Z,27.48
2018-07-04T19:25:08.026Z,27.35
2018-07-04T19:27:52.679Z,27.19
2018-07-04T19:30:37.259Z,27.07
2018-07-04T19:33:22.108Z,26.95
2018-07-04T19:36:08.108Z,26.86
2018-07-04T19:38:52.672Z,26.75
2018-07-04T19:41:37.925Z,26.66
2018-07-04T19:44:22.505Z,26.49
2018-07-04T19:47:07.419Z,26.38
2018-07-04T19:49:52.451Z,26.30
2018-07-04T19:52:37.139Z,26.18
2018-07-04T19:55:21.729Z,26.00
2018-07-04T19:58:07.028Z,25.92
2018-07-04T20:00:51.843Z,25.78
2018-07-04T20:03:36.988Z,25.68
2018-07-04T20:06:23.057Z,25.59
2018-07-04T20:09:08.336Z,25.36
2018-07-04T20:11:53.511Z,25.18
2018-07-04T20:14:38.612Z,25.04
2018-07-04T20:17:23.870Z,24.92
2018-07-04T20:20:08.839Z,24.81
2018-07-04T20:22:53.818Z,24.67
2018-07-04T20:25:39.020Z,24.58
2018-07-04T20:28:23.937Z,24.45
2018-07-04T20:31:08.662Z,24.36
2018-07-04T20:33:53.544Z,24.21
2018-07-04T20:36:38.561Z,24.11
2018-07-04T20:39:24.896Z,23.99
2018-07-04T20:42:09.636Z,23.82
2018-07-04T20:44:54.430Z,23.73
2018-07-04T20:47:39.146Z,23.67
2018-07-04T20:50:23.639Z,23.59
2018-07-04T20:53:08.352Z,23.52
2018-07-04T20:55:53.119Z,23.44
2018-07-04T20:58:38.260Z,23.37
2018-07-04T21:01:22.978Z,23.30
2018-07-04T21:04:07.604Z,23.21
2018-07-04T21:06:52.124Z,23.12
2018-07-04T21:09:36.775Z,23.00
2018-07-04T21:12:21.402Z,22.91
2018-07-04T21:15:06.146Z,22.82
2018-07-04T21:17:50.629Z,22.71
2018-07-04T21:20:35.332Z,22.61
2018-07-04T21:23:19.896Z,22.59
2018-07-04T21:26:04.539Z,22.54
2018-07-04T21:28:49.185Z,22.52
2018-07-04T21:31:33.869Z,22.52
2018-07-04T21:34:18.541Z,22.48
2018-07-04T21:37:03.363Z,22.44
2018-07-04T21:39:48.064Z,22.37
2018-07-04T21:42:32.660Z,22.31
2018-07-04T21:45:17.319Z,22.26
2018-07-04T21:48:01.957Z,22.23
2018-07-04T21:50:46.692Z,22.12
2018-07-04T21:53:31.488Z,22.09
2018-07-04T21:56:16.252Z,22.05
2018-07-04T21:59:00.916Z,22.04
2018-07-04T22:01:45.663Z,21.95
2018-07-04T22:04:30.359Z,21.88
2018-07-04T22:07:15.044Z,21.83
2018-07-04T22:09:59.697Z,21.80
2018-07-04T22:12:44.343Z,21.67
2018-07-04T22:15:29.149Z,21.61
2018-07-04T22:18:13.790Z,21.58
2018-07-04T22:20:58.231Z,21.53
2018-07-04T22:23:42.866Z,21.48
2018-07-04T22:26:27.506Z,21.41
2018-07-04T22:29:12.084Z,21.38
2018-07-04T22:31:56.931Z,21.39
2018-07-04T22:34:41.427Z,21.41
2018-07-04T22:37:25.946Z,21.36
2018-07-04T22:40:10.745Z,21.29
2018-07-04T22:42:55.300Z,21.17
2018-07-04T22:45:40.720Z,21.17
2018-07-04T22:48:25.396Z,21.14
2018-07-04T22:51:09.916Z,21.10
2018-07-04T22:53:54.705Z,21.07
2018-07-04T22:56:39.458Z,21.07
2018-07-04T22:59:24.099Z,20.98
2018-07-04T23:02:08.707Z,20.88
2018-07-04T23:04:53.316Z,20.82
2018-07-04T23:07:38.656Z,20.77
2018-07-04T23:10:23.300Z,20.71
2018-07-04T23:13:08.069Z,20.66
2018-07-04T23:15:52.856Z,20.65
2018-07-04T23:18:37.424Z,20.58
2018-07-04T23:21:21.947Z,20.58
2018-07-04T23:24:06.662Z,20.59
2018-07-04T23:26:52.136Z,20.56
2018-07-04T23:29:36.731Z,20.60
2018-07-04T23:32:21.403Z,20.58
2018-07-04T23:35:06.022Z,20.55
2018-07-04T23:37:50.828Z,20.51
2018-07-04T23:40:35.641Z,20.43
2018-07-04T23:43:20.421Z,20.38
2018-07-04T23:46:05.071Z,20.25
2018-07-04T23:48:49.754Z,20.14
2018-07-04T23:51:34.460Z,20.06
2018-07-04T23:54:19.204Z,20.00
2018-07-04T23:59:48.387Z,20.05
